THY8RW UBBB-LTFM
Flight info
| Callsign | THY8RW |
|---|---|
| Flight time | 2h 35m |
| Altitude | 32000 |
| Route | AGDAM M747 LUSAL N319 ADEKI DCT BADIR DCT LAGAS DCT NOLGA UG261 GONPU/N0448F340 UG261 TBN UW71 CRM UL746 GOKPA UM10 HAKAN UN644 GUMRU UT315 NUGBA |
| Aircraft | B738/M-SDE2E3FGHIRWXY/LB1 |
Departure
| Time | 2026-05-03 21:01 |
|---|---|
| Airport | Heydar Aliyev International Airport (UBBB) |
Arrival
| Time | 2026-05-03 23:37 |
|---|---|
| Airport | İstanbul Airport (LTFM) |
| Time | Latitude | Longitude | Altitude | Speed | Heading |
|---|---|---|---|---|---|
| 2026-05-03 20:15 | 40.46676 | 50.05086 | -3 ft | 0 kts | 145° |
| 2026-05-03 20:49 | 40.46691 | 50.05070 | -3 ft | 4 kts | 132° |
| 2026-05-03 20:49 | 40.46705 | 50.05043 | -3 ft | 4 kts | 106° |
| 2026-05-03 20:49 | 40.46707 | 50.05011 | -4 ft | 4 kts | 74° |
| 2026-05-03 20:49 | 40.46695 | 50.04985 | -4 ft | 4 kts | 31° |
| 2026-05-03 20:50 | 40.46690 | 50.04981 | -4 ft | 1 kts | 22° |
| 2026-05-03 20:53 | 40.46692 | 50.04982 | -4 ft | 1 kts | 23° |
| 2026-05-03 20:53 | 40.46712 | 50.04994 | -4 ft | 5 kts | 23° |
| 2026-05-03 20:53 | 40.46755 | 50.05016 | -3 ft | 8 kts | 20° |
| 2026-05-03 20:54 | 40.46814 | 50.05034 | -2 ft | 10 kts | 6° |
| 2026-05-03 20:54 | 40.46923 | 50.05091 | -2 ft | 9 kts | 82° |
| 2026-05-03 20:54 | 40.46925 | 50.05180 | -4 ft | 10 kts | 88° |
| 2026-05-03 20:55 | 40.46927 | 50.05270 | -4 ft | 10 kts | 88° |
| 2026-05-03 20:55 | 40.46929 | 50.05358 | -3 ft | 10 kts | 87° |
| 2026-05-03 20:55 | 40.46932 | 50.05444 | -3 ft | 9 kts | 88° |
| 2026-05-03 20:55 | 40.46934 | 50.05533 | -2 ft | 10 kts | 88° |
| 2026-05-03 20:56 | 40.46937 | 50.05638 | -1 ft | 13 kts | 88° |
| 2026-05-03 20:56 | 40.46940 | 50.05766 | 1 ft | 15 kts | 88° |
| 2026-05-03 20:56 | 40.46943 | 50.05902 | 4 ft | 15 kts | 88° |
| 2026-05-03 20:56 | 40.46946 | 50.06007 | 6 ft | 10 kts | 90° |
| 2026-05-03 20:57 | 40.46916 | 50.06082 | 6 ft | 10 kts | 151° |
| 2026-05-03 20:57 | 40.46850 | 50.06090 | 7 ft | 9 kts | 178° |
| 2026-05-03 20:57 | 40.46782 | 50.06091 | 5 ft | 11 kts | 179° |
| 2026-05-03 20:57 | 40.46697 | 50.06092 | 5 ft | 14 kts | 179° |
| 2026-05-03 20:58 | 40.46626 | 50.06093 | 3 ft | 17 kts | 180° |
| 2026-05-03 20:58 | 40.46496 | 50.06095 | 2 ft | 21 kts | 179° |
| 2026-05-03 20:58 | 40.46345 | 50.06096 | 1 ft | 22 kts | 180° |
| 2026-05-03 20:58 | 40.46194 | 50.06099 | -1 ft | 21 kts | 179° |
| 2026-05-03 20:59 | 40.46046 | 50.06100 | -3 ft | 21 kts | 180° |
| 2026-05-03 20:59 | 40.45903 | 50.06103 | -4 ft | 20 kts | 179° |
| 2026-05-03 20:59 | 40.45765 | 50.06105 | -5 ft | 19 kts | 179° |
| 2026-05-03 20:59 | 40.45700 | 50.06111 | -6 ft | 9 kts | 166° |
| 2026-05-03 21:00 | 40.45658 | 50.06169 | -7 ft | 10 kts | 105° |
| 2026-05-03 21:00 | 40.45658 | 50.06232 | -8 ft | 11 kts | 84° |
| 2026-05-03 21:00 | 40.45694 | 50.06320 | -7 ft | 8 kts | 12° |
| 2026-05-03 21:00 | 40.45719 | 50.06321 | -7 ft | 0 kts | 359° |
| 2026-05-03 21:01 | 40.45744 | 50.06321 | -7 ft | 22 kts | 359° |
| 2026-05-03 21:01 | 40.46163 | 50.06315 | -3 ft | 96 kts | 359° |
| 2026-05-03 21:01 | 40.47050 | 50.06302 | 8 ft | 157 kts | 359° |
| 2026-05-03 21:01 | 40.48183 | 50.06284 | 662 ft | 158 kts | 356° |
| 2026-05-03 21:02 | 40.49296 | 50.06142 | 1516 ft | 162 kts | 344° |
| 2026-05-03 21:02 | 40.50435 | 50.05766 | 2104 ft | 182 kts | 348° |
| 2026-05-03 21:02 | 40.51800 | 50.05443 | 2349 ft | 213 kts | 349° |
| 2026-05-03 21:02 | 40.53347 | 50.05086 | 2586 ft | 239 kts | 349° |
| 2026-05-03 21:03 | 40.55037 | 50.04705 | 3053 ft | 258 kts | 350° |
| 2026-05-03 21:03 | 40.56844 | 50.04336 | 3971 ft | 261 kts | 355° |
| 2026-05-03 21:03 | 40.58626 | 50.04767 | 4719 ft | 273 kts | 25° |
| 2026-05-03 21:03 | 40.60104 | 50.06383 | 5403 ft | 286 kts | 57° |
| 2026-05-03 21:04 | 40.60783 | 50.08842 | 6162 ft | 287 kts | 86° |
| 2026-05-03 21:04 | 40.60749 | 50.11435 | 7135 ft | 280 kts | 101° |
| 2026-05-03 21:04 | 40.60479 | 50.13943 | 7994 ft | 283 kts | 104° |
| 2026-05-03 21:04 | 40.60174 | 50.16531 | 8771 ft | 288 kts | 103° |
| 2026-05-03 21:05 | 40.59873 | 50.19155 | 9567 ft | 292 kts | 103° |
| 2026-05-03 21:05 | 40.59580 | 50.21824 | 10327 ft | 298 kts | 102° |
| 2026-05-03 21:05 | 40.59286 | 50.24580 | 10594 ft | 320 kts | 101° |
| 2026-05-03 21:05 | 40.58972 | 50.27588 | 10785 ft | 344 kts | 102° |
| 2026-05-03 21:06 | 40.58262 | 50.30613 | 11214 ft | 349 kts | 125° |
| 2026-05-03 21:06 | 40.56611 | 50.32891 | 11896 ft | 345 kts | 149° |
| 2026-05-03 21:06 | 40.54432 | 50.34142 | 12618 ft | 343 kts | 169° |
| 2026-05-03 21:06 | 40.52056 | 50.34301 | 13275 ft | 344 kts | 189° |
| 2026-05-03 21:07 | 40.49789 | 50.33321 | 13942 ft | 347 kts | 210° |
| 2026-05-03 21:07 | 40.47933 | 50.31300 | 14649 ft | 350 kts | 230° |
| 2026-05-03 21:07 | 40.46703 | 50.28543 | 15296 ft | 355 kts | 249° |
| 2026-05-03 21:07 | 40.45989 | 50.25405 | 15949 ft | 359 kts | 254° |
| 2026-05-03 21:08 | 40.45401 | 50.22211 | 16634 ft | 361 kts | 256° |
| 2026-05-03 21:08 | 40.44847 | 50.19014 | 17264 ft | 364 kts | 256° |
| 2026-05-03 21:08 | 40.44283 | 50.15760 | 17890 ft | 366 kts | 256° |
| 2026-05-03 21:08 | 40.43703 | 50.12491 | 18484 ft | 369 kts | 256° |
| 2026-05-03 21:09 | 40.43105 | 50.09191 | 19062 ft | 372 kts | 256° |
| 2026-05-03 21:09 | 40.42496 | 50.05880 | 19623 ft | 375 kts | 256° |
| 2026-05-03 21:09 | 40.41873 | 50.02533 | 20164 ft | 378 kts | 255° |
| 2026-05-03 21:09 | 40.41240 | 49.99163 | 20632 ft | 384 kts | 255° |
| 2026-05-03 21:10 | 40.40601 | 49.95776 | 21050 ft | 389 kts | 255° |
| 2026-05-03 21:10 | 40.39945 | 49.92315 | 21613 ft | 391 kts | 255° |
| 2026-05-03 21:10 | 40.39285 | 49.88848 | 22148 ft | 393 kts | 255° |
| 2026-05-03 21:10 | 40.38621 | 49.85357 | 22618 ft | 396 kts | 255° |
| 2026-05-03 21:11 | 40.37953 | 49.81848 | 23084 ft | 398 kts | 255° |
| 2026-05-03 21:11 | 40.37278 | 49.78310 | 23520 ft | 401 kts | 255° |
| 2026-05-03 21:11 | 40.36598 | 49.74749 | 23968 ft | 403 kts | 255° |
| 2026-05-03 21:11 | 40.35912 | 49.71164 | 24387 ft | 406 kts | 255° |
| 2026-05-03 21:12 | 40.35221 | 49.67564 | 24832 ft | 407 kts | 254° |
| 2026-05-03 21:12 | 40.34536 | 49.63997 | 25288 ft | 408 kts | 254° |
| 2026-05-03 21:12 | 40.33842 | 49.60386 | 25746 ft | 409 kts | 254° |
| 2026-05-03 21:12 | 40.33141 | 49.56754 | 26152 ft | 411 kts | 254° |
| 2026-05-03 21:13 | 40.32438 | 49.53112 | 26544 ft | 413 kts | 254° |
| 2026-05-03 21:13 | 40.31732 | 49.49458 | 26927 ft | 414 kts | 254° |
| 2026-05-03 21:13 | 40.31020 | 49.45790 | 27296 ft | 415 kts | 254° |
| 2026-05-03 21:13 | 40.30307 | 49.42115 | 27644 ft | 417 kts | 254° |
| 2026-05-03 21:14 | 40.29587 | 49.38416 | 27994 ft | 418 kts | 254° |
| 2026-05-03 21:14 | 40.28878 | 49.34767 | 28366 ft | 419 kts | 254° |
| 2026-05-03 21:14 | 40.28154 | 49.31056 | 28713 ft | 421 kts | 254° |
| 2026-05-03 21:14 | 40.27455 | 49.27341 | 29145 ft | 420 kts | 257° |
| 2026-05-03 21:15 | 40.27183 | 49.23538 | 29641 ft | 420 kts | 267° |
| 2026-05-03 21:15 | 40.27342 | 49.19733 | 30183 ft | 418 kts | 274° |
| 2026-05-03 21:15 | 40.27905 | 49.15999 | 30543 ft | 421 kts | 283° |
| 2026-05-03 21:15 | 40.28870 | 49.12354 | 30860 ft | 423 kts | 286° |
| 2026-05-03 21:16 | 40.29873 | 49.08732 | 31149 ft | 424 kts | 285° |
| 2026-05-03 21:16 | 40.30855 | 49.05083 | 31395 ft | 423 kts | 284° |
| 2026-05-03 21:16 | 40.31802 | 49.01454 | 31637 ft | 419 kts | 284° |
| 2026-05-03 21:16 | 40.32722 | 48.97847 | 31882 ft | 415 kts | 284° |
| 2026-05-03 21:17 | 40.33615 | 48.94314 | 32006 ft | 413 kts | 284° |
| 2026-05-03 21:17 | 40.34225 | 48.91887 | 31985 ft | 415 kts | 284° |
| 2026-05-03 21:17 | 40.36337 | 48.83508 | 32006 ft | 417 kts | 284° |
| 2026-05-03 21:18 | 40.38157 | 48.76274 | 32008 ft | 418 kts | 283° |
| 2026-05-03 21:18 | 40.39982 | 48.69011 | 32013 ft | 419 kts | 284° |
| 2026-05-03 21:19 | 40.41795 | 48.61792 | 32009 ft | 419 kts | 283° |
| 2026-05-03 21:19 | 40.43617 | 48.54500 | 32008 ft | 419 kts | 283° |
| 2026-05-03 21:20 | 40.45426 | 48.47240 | 32010 ft | 417 kts | 283° |
| 2026-05-03 21:20 | 40.47223 | 48.40005 | 32016 ft | 416 kts | 283° |
| 2026-05-03 21:21 | 40.49017 | 48.32784 | 32010 ft | 414 kts | 283° |
| 2026-05-03 21:21 | 40.50791 | 48.25589 | 32010 ft | 413 kts | 283° |
| 2026-05-03 21:22 | 40.52546 | 48.18470 | 32007 ft | 412 kts | 283° |
| 2026-05-03 21:22 | 40.54309 | 48.11300 | 32008 ft | 413 kts | 283° |
| 2026-05-03 21:23 | 40.56070 | 48.04119 | 32021 ft | 413 kts | 283° |
| 2026-05-03 21:23 | 40.57926 | 47.96943 | 32013 ft | 418 kts | 289° |
| 2026-05-03 21:24 | 40.60998 | 47.90339 | 32026 ft | 429 kts | 303° |
| 2026-05-03 21:24 | 40.64775 | 47.84218 | 32011 ft | 431 kts | 303° |
| 2026-05-03 21:25 | 40.68560 | 47.78065 | 32027 ft | 432 kts | 303° |
| 2026-05-03 21:25 | 40.72292 | 47.71908 | 32014 ft | 432 kts | 303° |
| 2026-05-03 21:26 | 40.76030 | 47.65702 | 32015 ft | 432 kts | 303° |
| 2026-05-03 21:26 | 40.79765 | 47.59486 | 32020 ft | 431 kts | 303° |
| 2026-05-03 21:27 | 40.83494 | 47.53282 | 32022 ft | 431 kts | 303° |
| 2026-05-03 21:27 | 40.87194 | 47.47102 | 32030 ft | 431 kts | 303° |
| 2026-05-03 21:28 | 40.90910 | 47.40865 | 32027 ft | 432 kts | 303° |
| 2026-05-03 21:28 | 40.94628 | 47.34611 | 32029 ft | 433 kts | 303° |
| 2026-05-03 21:29 | 40.98348 | 47.28342 | 32029 ft | 433 kts | 303° |
| 2026-05-03 21:29 | 41.02060 | 47.22072 | 32041 ft | 432 kts | 303° |
| 2026-05-03 21:30 | 41.05771 | 47.15803 | 32045 ft | 433 kts | 303° |
| 2026-05-03 21:30 | 41.09459 | 47.09549 | 32048 ft | 433 kts | 303° |
| 2026-05-03 21:31 | 41.13176 | 47.03233 | 32040 ft | 434 kts | 303° |
| 2026-05-03 21:31 | 41.16885 | 46.96920 | 32039 ft | 434 kts | 303° |
| 2026-05-03 21:32 | 41.20599 | 46.90583 | 32049 ft | 434 kts | 303° |
| 2026-05-03 21:32 | 41.24282 | 46.84287 | 32057 ft | 435 kts | 303° |
| 2026-05-03 21:33 | 41.27939 | 46.77878 | 32055 ft | 433 kts | 297° |
| 2026-05-03 21:33 | 41.30349 | 46.70663 | 32061 ft | 424 kts | 281° |
| 2026-05-03 21:34 | 41.31476 | 46.63009 | 32061 ft | 421 kts | 276° |
| 2026-05-03 21:34 | 41.32483 | 46.55376 | 32061 ft | 422 kts | 276° |
| 2026-05-03 21:35 | 41.33516 | 46.47686 | 32067 ft | 422 kts | 277° |
| 2026-05-03 21:35 | 41.34569 | 46.39979 | 32063 ft | 424 kts | 277° |
| 2026-05-03 21:36 | 41.35633 | 46.32233 | 32057 ft | 425 kts | 277° |
| 2026-05-03 21:36 | 41.36694 | 46.24482 | 32056 ft | 426 kts | 277° |
| 2026-05-03 21:37 | 41.37752 | 46.16704 | 32045 ft | 427 kts | 277° |
| 2026-05-03 21:37 | 41.38809 | 46.08890 | 32049 ft | 428 kts | 277° |
| 2026-05-03 21:38 | 41.39852 | 46.01133 | 32040 ft | 429 kts | 277° |
| 2026-05-03 21:38 | 41.40895 | 45.93323 | 32030 ft | 427 kts | 277° |
| 2026-05-03 21:39 | 41.41933 | 45.85520 | 32032 ft | 427 kts | 277° |
| 2026-05-03 21:39 | 41.42970 | 45.77709 | 32028 ft | 428 kts | 277° |
| 2026-05-03 21:40 | 41.43991 | 45.69948 | 32033 ft | 428 kts | 277° |
| 2026-05-03 21:40 | 41.45013 | 45.62126 | 32022 ft | 428 kts | 277° |
| 2026-05-03 21:41 | 41.46030 | 45.54309 | 32020 ft | 427 kts | 277° |
| 2026-05-03 21:41 | 41.47040 | 45.46504 | 32017 ft | 427 kts | 277° |
| 2026-05-03 21:42 | 41.48046 | 45.38694 | 32014 ft | 427 kts | 276° |
| 2026-05-03 21:42 | 41.48866 | 45.30913 | 32029 ft | 426 kts | 273° |
| 2026-05-03 21:43 | 41.49482 | 45.23057 | 32022 ft | 425 kts | 273° |
| 2026-05-03 21:43 | 41.50085 | 45.15210 | 32015 ft | 425 kts | 273° |
| 2026-05-03 21:44 | 41.50707 | 45.07372 | 32017 ft | 424 kts | 273° |
| 2026-05-03 21:44 | 41.51333 | 44.99563 | 32013 ft | 423 kts | 273° |
| 2026-05-03 21:45 | 41.51956 | 44.91797 | 32025 ft | 422 kts | 273° |
| 2026-05-03 21:45 | 41.52571 | 44.84001 | 32020 ft | 422 kts | 273° |
| 2026-05-03 21:46 | 41.53082 | 44.77473 | 32015 ft | 422 kts | 273° |
| 2026-05-03 21:46 | 41.53688 | 44.69683 | 32016 ft | 423 kts | 273° |
| 2026-05-03 21:47 | 41.54287 | 44.61912 | 32012 ft | 422 kts | 273° |
| 2026-05-03 21:47 | 41.54883 | 44.54108 | 32008 ft | 423 kts | 273° |
| 2026-05-03 21:48 | 41.55474 | 44.46276 | 32011 ft | 425 kts | 273° |
| 2026-05-03 21:48 | 41.56067 | 44.38414 | 32002 ft | 426 kts | 273° |
| 2026-05-03 21:49 | 41.56655 | 44.30516 | 31993 ft | 428 kts | 273° |
| 2026-05-03 21:49 | 41.57106 | 44.22602 | 31971 ft | 428 kts | 266° |
| 2026-05-03 21:50 | 41.56374 | 44.14750 | 31976 ft | 426 kts | 259° |
| 2026-05-03 21:50 | 41.55453 | 44.06931 | 31971 ft | 426 kts | 259° |
| 2026-05-03 21:51 | 41.54557 | 43.99166 | 31964 ft | 425 kts | 259° |
| 2026-05-03 21:51 | 41.53680 | 43.91351 | 31958 ft | 425 kts | 260° |
| 2026-05-03 21:52 | 41.52799 | 43.83542 | 31954 ft | 425 kts | 259° |
| 2026-05-03 21:52 | 41.51918 | 43.75761 | 31952 ft | 423 kts | 259° |
| 2026-05-03 21:53 | 41.51033 | 43.68008 | 31956 ft | 422 kts | 259° |
| 2026-05-03 21:53 | 41.50146 | 43.60251 | 31952 ft | 422 kts | 259° |
| 2026-05-03 21:54 | 41.49259 | 43.52522 | 31952 ft | 422 kts | 259° |
| 2026-05-03 21:54 | 41.48360 | 43.44798 | 31959 ft | 421 kts | 259° |
| 2026-05-03 21:55 | 41.47456 | 43.37075 | 31938 ft | 421 kts | 259° |
| 2026-05-03 21:55 | 41.46549 | 43.29370 | 31953 ft | 421 kts | 259° |
| 2026-05-03 21:56 | 41.45645 | 43.21725 | 31914 ft | 421 kts | 258° |
| 2026-05-03 21:56 | 41.44726 | 43.13999 | 31894 ft | 421 kts | 258° |
| 2026-05-03 21:57 | 41.43807 | 43.06276 | 31859 ft | 422 kts | 258° |
| 2026-05-03 21:57 | 41.42878 | 42.98547 | 31818 ft | 423 kts | 258° |
| 2026-05-03 21:58 | 41.41943 | 42.90804 | 31815 ft | 422 kts | 258° |
| 2026-05-03 21:58 | 41.41008 | 42.83083 | 31804 ft | 422 kts | 258° |
| 2026-05-03 21:59 | 41.40069 | 42.75372 | 31812 ft | 421 kts | 258° |
| 2026-05-03 21:59 | 41.39133 | 42.67719 | 31798 ft | 421 kts | 258° |
| 2026-05-03 22:00 | 41.38184 | 42.60020 | 31801 ft | 421 kts | 258° |
| 2026-05-03 22:00 | 41.37229 | 42.52328 | 31814 ft | 421 kts | 258° |
| 2026-05-03 22:01 | 41.36269 | 42.44626 | 31803 ft | 422 kts | 258° |
| 2026-05-03 22:01 | 41.35301 | 42.36904 | 31783 ft | 422 kts | 258° |
| 2026-05-03 22:02 | 41.34331 | 42.29191 | 31792 ft | 422 kts | 257° |
| 2026-05-03 22:02 | 41.33361 | 42.21552 | 31789 ft | 421 kts | 257° |
| 2026-05-03 22:03 | 41.32379 | 42.13859 | 31783 ft | 421 kts | 257° |
| 2026-05-03 22:03 | 41.31399 | 42.06187 | 31790 ft | 421 kts | 257° |
| 2026-05-03 22:04 | 41.30409 | 41.98511 | 31792 ft | 421 kts | 257° |
| 2026-05-03 22:04 | 41.29406 | 41.90816 | 31792 ft | 423 kts | 257° |
| 2026-05-03 22:05 | 41.28385 | 41.83125 | 31787 ft | 423 kts | 257° |
| 2026-05-03 22:05 | 41.27359 | 41.75415 | 31790 ft | 424 kts | 257° |
| 2026-05-03 22:06 | 41.26334 | 41.67744 | 31790 ft | 424 kts | 256° |
| 2026-05-03 22:06 | 41.25297 | 41.60010 | 31792 ft | 424 kts | 257° |
| 2026-05-03 22:07 | 41.24254 | 41.52287 | 31787 ft | 425 kts | 256° |
| 2026-05-03 22:07 | 41.23203 | 41.44548 | 31796 ft | 426 kts | 256° |
| 2026-05-03 22:08 | 41.22160 | 41.36863 | 31796 ft | 426 kts | 256° |
| 2026-05-03 22:08 | 41.21084 | 41.29030 | 31959 ft | 437 kts | 256° |
| 2026-05-03 22:09 | 41.20528 | 41.25031 | 32065 ft | 442 kts | 256° |
| 2026-05-03 22:09 | 41.19969 | 41.20990 | 32212 ft | 445 kts | 256° |
| 2026-05-03 22:09 | 41.19412 | 41.16954 | 32515 ft | 444 kts | 256° |
| 2026-05-03 22:10 | 41.18297 | 41.08932 | 33262 ft | 440 kts | 256° |
| 2026-05-03 22:10 | 41.17742 | 41.04950 | 33542 ft | 439 kts | 256° |
| 2026-05-03 22:10 | 41.17183 | 41.00949 | 33798 ft | 440 kts | 256° |
| 2026-05-03 22:10 | 41.16633 | 40.97020 | 34149 ft | 438 kts | 255° |
| 2026-05-03 22:11 | 41.16075 | 40.93055 | 34489 ft | 436 kts | 255° |
| 2026-05-03 22:11 | 41.15518 | 40.89114 | 34772 ft | 434 kts | 255° |
| 2026-05-03 22:11 | 41.14961 | 40.85186 | 34969 ft | 435 kts | 255° |
| 2026-05-03 22:11 | 41.14401 | 40.81232 | 35203 ft | 434 kts | 255° |
| 2026-05-03 22:12 | 41.13844 | 40.77297 | 35479 ft | 433 kts | 255° |
| 2026-05-03 22:12 | 41.13286 | 40.73377 | 35787 ft | 431 kts | 255° |
| 2026-05-03 22:12 | 41.12731 | 40.69487 | 36079 ft | 429 kts | 255° |
| 2026-05-03 22:12 | 41.12173 | 40.65593 | 36296 ft | 429 kts | 255° |
| 2026-05-03 22:13 | 41.11614 | 40.61709 | 36494 ft | 429 kts | 255° |
| 2026-05-03 22:13 | 41.11054 | 40.57820 | 36724 ft | 428 kts | 255° |
| 2026-05-03 22:13 | 41.10503 | 40.53999 | 37058 ft | 424 kts | 255° |
| 2026-05-03 22:13 | 41.09941 | 40.50111 | 37284 ft | 423 kts | 255° |
| 2026-05-03 22:14 | 41.09389 | 40.46308 | 37534 ft | 417 kts | 255° |
| 2026-05-03 22:14 | 41.08853 | 40.42603 | 37759 ft | 413 kts | 255° |
| 2026-05-03 22:14 | 41.08309 | 40.38864 | 37778 ft | 415 kts | 255° |
| 2026-05-03 22:15 | 41.07204 | 40.31336 | 37783 ft | 416 kts | 255° |
| 2026-05-03 22:15 | 41.06053 | 40.23815 | 37788 ft | 417 kts | 255° |
| 2026-05-03 22:16 | 41.04966 | 40.16291 | 37786 ft | 417 kts | 255° |
| 2026-05-03 22:16 | 41.03871 | 40.08754 | 37790 ft | 416 kts | 255° |
| 2026-05-03 22:17 | 41.02754 | 40.01207 | 37782 ft | 419 kts | 254° |
| 2026-05-03 22:17 | 41.01614 | 39.93641 | 37768 ft | 420 kts | 254° |
| 2026-05-03 22:18 | 41.00488 | 39.86059 | 37777 ft | 420 kts | 254° |
| 2026-05-03 22:18 | 40.99688 | 39.78373 | 37776 ft | 428 kts | 264° |
| 2026-05-03 22:19 | 41.00230 | 39.70532 | 37780 ft | 432 kts | 272° |
| 2026-05-03 22:19 | 41.01101 | 39.62677 | 37771 ft | 431 kts | 272° |
| 2026-05-03 22:20 | 41.01886 | 39.54841 | 37759 ft | 429 kts | 271° |
| 2026-05-03 22:20 | 41.02646 | 39.47029 | 37770 ft | 426 kts | 271° |
| 2026-05-03 22:21 | 41.03348 | 39.39239 | 37781 ft | 426 kts | 271° |
| 2026-05-03 22:21 | 41.04065 | 39.31447 | 37772 ft | 423 kts | 271° |
| 2026-05-03 22:22 | 41.04781 | 39.23692 | 37774 ft | 426 kts | 271° |
| 2026-05-03 22:22 | 41.05500 | 39.15920 | 37771 ft | 431 kts | 271° |
| 2026-05-03 22:23 | 41.06244 | 39.07994 | 37796 ft | 435 kts | 271° |
| 2026-05-03 22:23 | 41.06988 | 39.00004 | 37786 ft | 438 kts | 271° |
| 2026-05-03 22:24 | 41.07754 | 38.91968 | 37790 ft | 440 kts | 271° |
| 2026-05-03 22:24 | 41.08467 | 38.83913 | 37782 ft | 440 kts | 271° |
| 2026-05-03 22:25 | 41.09182 | 38.75860 | 37792 ft | 440 kts | 271° |
| 2026-05-03 22:25 | 41.09906 | 38.67885 | 37789 ft | 437 kts | 271° |
| 2026-05-03 22:26 | 41.10564 | 38.59900 | 37795 ft | 433 kts | 270° |
| 2026-05-03 22:26 | 41.11231 | 38.51964 | 37790 ft | 432 kts | 270° |
| 2026-05-03 22:27 | 41.11900 | 38.44075 | 37785 ft | 431 kts | 270° |
| 2026-05-03 22:27 | 41.12559 | 38.36156 | 37801 ft | 432 kts | 270° |
| 2026-05-03 22:28 | 41.13211 | 38.28236 | 37805 ft | 432 kts | 271° |
| 2026-05-03 22:28 | 41.13873 | 38.20334 | 37794 ft | 434 kts | 270° |
| 2026-05-03 22:29 | 41.14504 | 38.12353 | 37806 ft | 434 kts | 270° |
| 2026-05-03 22:29 | 41.15126 | 38.04359 | 37807 ft | 436 kts | 270° |
| 2026-05-03 22:30 | 41.15772 | 37.96409 | 37792 ft | 436 kts | 270° |
| 2026-05-03 22:30 | 41.16401 | 37.88386 | 37800 ft | 437 kts | 270° |
| 2026-05-03 22:31 | 41.17089 | 37.80355 | 37819 ft | 441 kts | 271° |
| 2026-05-03 22:31 | 41.17802 | 37.72232 | 37809 ft | 443 kts | 270° |
| 2026-05-03 22:32 | 41.18385 | 37.65445 | 37802 ft | 445 kts | 271° |
| 2026-05-03 22:32 | 41.19054 | 37.55935 | 37793 ft | 443 kts | 267° |
| 2026-05-03 22:33 | 41.19422 | 37.49131 | 37795 ft | 446 kts | 270° |
| 2026-05-03 22:33 | 41.20044 | 37.40938 | 37801 ft | 446 kts | 270° |
| 2026-05-03 22:34 | 41.20666 | 37.32729 | 37801 ft | 446 kts | 270° |
| 2026-05-03 22:34 | 41.21254 | 37.24528 | 37792 ft | 446 kts | 270° |
| 2026-05-03 22:35 | 41.21866 | 37.16332 | 37792 ft | 445 kts | 270° |
| 2026-05-03 22:35 | 41.22520 | 37.08219 | 37800 ft | 441 kts | 270° |
| 2026-05-03 22:36 | 41.23169 | 37.00094 | 37798 ft | 441 kts | 270° |
| 2026-05-03 22:36 | 41.23794 | 36.92039 | 37810 ft | 441 kts | 270° |
| 2026-05-03 22:37 | 41.24418 | 36.83923 | 37801 ft | 442 kts | 270° |
| 2026-05-03 22:37 | 41.25030 | 36.75769 | 37799 ft | 444 kts | 270° |
| 2026-05-03 22:38 | 41.25657 | 36.67602 | 37810 ft | 445 kts | 270° |
| 2026-05-03 22:38 | 41.26271 | 36.59390 | 37807 ft | 447 kts | 270° |
| 2026-05-03 22:39 | 41.27402 | 36.51233 | 37807 ft | 460 kts | 283° |
| 2026-05-03 22:39 | 41.29492 | 36.43125 | 37810 ft | 460 kts | 284° |
| 2026-05-03 22:40 | 41.31614 | 36.35162 | 37790 ft | 459 kts | 284° |
| 2026-05-03 22:40 | 41.33673 | 36.27128 | 37802 ft | 458 kts | 283° |
| 2026-05-03 22:41 | 41.35699 | 36.19080 | 37793 ft | 458 kts | 283° |
| 2026-05-03 22:41 | 41.37727 | 36.10996 | 37796 ft | 461 kts | 283° |
| 2026-05-03 22:42 | 41.39765 | 36.02880 | 37792 ft | 463 kts | 283° |
| 2026-05-03 22:42 | 41.41797 | 35.94801 | 37785 ft | 462 kts | 283° |
| 2026-05-03 22:43 | 41.43820 | 35.86659 | 37795 ft | 462 kts | 283° |
| 2026-05-03 22:43 | 41.45833 | 35.78520 | 37798 ft | 463 kts | 283° |
| 2026-05-03 22:44 | 41.47864 | 35.70347 | 37785 ft | 465 kts | 283° |
| 2026-05-03 22:44 | 41.49883 | 35.62161 | 37779 ft | 464 kts | 283° |
| 2026-05-03 22:45 | 41.51901 | 35.53964 | 37790 ft | 465 kts | 283° |
| 2026-05-03 22:45 | 41.53913 | 35.45752 | 37778 ft | 464 kts | 283° |
| 2026-05-03 22:46 | 41.55894 | 35.37595 | 37779 ft | 465 kts | 283° |
| 2026-05-03 22:46 | 41.57895 | 35.29361 | 37774 ft | 467 kts | 283° |
| 2026-05-03 22:47 | 41.59957 | 35.21083 | 37772 ft | 472 kts | 285° |
| 2026-05-03 22:47 | 41.61927 | 35.12753 | 37764 ft | 470 kts | 283° |
| 2026-05-03 22:48 | 41.63907 | 35.04471 | 37771 ft | 466 kts | 282° |
| 2026-05-03 22:48 | 41.65870 | 34.96258 | 37744 ft | 462 kts | 283° |
| 2026-05-03 22:49 | 41.67831 | 34.88127 | 37770 ft | 461 kts | 282° |
| 2026-05-03 22:49 | 41.69742 | 34.79885 | 37790 ft | 465 kts | 283° |
| 2026-05-03 22:50 | 41.71761 | 34.71645 | 37789 ft | 472 kts | 284° |
| 2026-05-03 22:50 | 41.73749 | 34.63223 | 37778 ft | 474 kts | 281° |
| 2026-05-03 22:51 | 41.74754 | 34.54687 | 37781 ft | 454 kts | 264° |
| 2026-05-03 22:51 | 41.74697 | 34.46253 | 37774 ft | 450 kts | 263° |
| 2026-05-03 22:52 | 41.74516 | 34.37848 | 37767 ft | 454 kts | 264° |
| 2026-05-03 22:52 | 41.74422 | 34.29411 | 37786 ft | 454 kts | 265° |
| 2026-05-03 22:53 | 41.74472 | 34.20900 | 37770 ft | 459 kts | 265° |
| 2026-05-03 22:53 | 41.74409 | 34.12373 | 37756 ft | 460 kts | 264° |
| 2026-05-03 22:54 | 41.74371 | 34.03850 | 37799 ft | 460 kts | 265° |
| 2026-05-03 22:54 | 41.74349 | 33.95251 | 37783 ft | 461 kts | 265° |
| 2026-05-03 22:55 | 41.74308 | 33.86673 | 37770 ft | 460 kts | 266° |
| 2026-05-03 22:55 | 41.74322 | 33.78091 | 37794 ft | 464 kts | 264° |
| 2026-05-03 22:56 | 41.74175 | 33.69508 | 37790 ft | 464 kts | 264° |
| 2026-05-03 22:56 | 41.74122 | 33.60902 | 37784 ft | 460 kts | 265° |
| 2026-05-03 22:57 | 41.74013 | 33.52307 | 37751 ft | 462 kts | 264° |
| 2026-05-03 22:57 | 41.73963 | 33.43777 | 37788 ft | 457 kts | 264° |
| 2026-05-03 22:58 | 41.73851 | 33.35286 | 37770 ft | 454 kts | 265° |
| 2026-05-03 22:58 | 41.73760 | 33.26851 | 37772 ft | 452 kts | 264° |
| 2026-05-03 22:59 | 41.73581 | 33.18478 | 37801 ft | 455 kts | 264° |
| 2026-05-03 22:59 | 41.73524 | 33.09939 | 37778 ft | 461 kts | 265° |
| 2026-05-03 23:00 | 41.73396 | 33.01306 | 37786 ft | 464 kts | 264° |
| 2026-05-03 23:00 | 41.73171 | 32.92630 | 37795 ft | 468 kts | 265° |
| 2026-05-03 23:01 | 41.73145 | 32.83973 | 37860 ft | 463 kts | 263° |
| 2026-05-03 23:01 | 41.73088 | 32.75303 | 37808 ft | 466 kts | 265° |
| 2026-05-03 23:02 | 41.72867 | 32.66587 | 37818 ft | 469 kts | 264° |
| 2026-05-03 23:02 | 41.72724 | 32.57835 | 37847 ft | 470 kts | 264° |
| 2026-05-03 23:03 | 41.72587 | 32.49084 | 37819 ft | 471 kts | 264° |
| 2026-05-03 23:03 | 41.72521 | 32.40328 | 37850 ft | 470 kts | 264° |
| 2026-05-03 23:04 | 41.72338 | 32.31583 | 37868 ft | 471 kts | 263° |
| 2026-05-03 23:04 | 41.71408 | 32.23094 | 37847 ft | 458 kts | 253° |
| 2026-05-03 23:05 | 41.69854 | 32.14850 | 37880 ft | 454 kts | 248° |
| 2026-05-03 23:05 | 41.68125 | 32.06756 | 37863 ft | 451 kts | 250° |
| 2026-05-03 23:06 | 41.66580 | 31.98588 | 37852 ft | 455 kts | 251° |
| 2026-05-03 23:06 | 41.65093 | 31.90338 | 37874 ft | 458 kts | 253° |
| 2026-05-03 23:07 | 41.63625 | 31.81937 | 37809 ft | 466 kts | 252° |
| 2026-05-03 23:07 | 41.62866 | 31.77763 | 37496 ft | 466 kts | 250° |
| 2026-05-03 23:07 | 41.62052 | 31.73592 | 37274 ft | 462 kts | 250° |
| 2026-05-03 23:07 | 41.61290 | 31.69432 | 36958 ft | 458 kts | 252° |
| 2026-05-03 23:08 | 41.60588 | 31.65276 | 36410 ft | 456 kts | 250° |
| 2026-05-03 23:08 | 41.59830 | 31.61164 | 35746 ft | 458 kts | 249° |
| 2026-05-03 23:08 | 41.59047 | 31.57014 | 34842 ft | 465 kts | 249° |
| 2026-05-03 23:08 | 41.58244 | 31.52776 | 33818 ft | 475 kts | 248° |
| 2026-05-03 23:09 | 41.57437 | 31.48496 | 32866 ft | 484 kts | 248° |
| 2026-05-03 23:09 | 41.56624 | 31.44131 | 32148 ft | 484 kts | 248° |
| 2026-05-03 23:09 | 41.55818 | 31.39782 | 31707 ft | 478 kts | 249° |
| 2026-05-03 23:09 | 41.55197 | 31.35415 | 31316 ft | 479 kts | 257° |
| 2026-05-03 23:10 | 41.55034 | 31.30952 | 30855 ft | 482 kts | 267° |
| 2026-05-03 23:10 | 41.55261 | 31.26560 | 30403 ft | 479 kts | 270° |
| 2026-05-03 23:10 | 41.55542 | 31.22162 | 30129 ft | 468 kts | 265° |
| 2026-05-03 23:10 | 41.55355 | 31.17918 | 29862 ft | 452 kts | 255° |
| 2026-05-03 23:11 | 41.54710 | 31.13811 | 29638 ft | 449 kts | 247° |
| 2026-05-03 23:11 | 41.53658 | 31.09904 | 29392 ft | 450 kts | 242° |
| 2026-05-03 23:11 | 41.52514 | 31.06012 | 29146 ft | 448 kts | 242° |
| 2026-05-03 23:11 | 41.51373 | 31.02161 | 28889 ft | 446 kts | 242° |
| 2026-05-03 23:12 | 41.50240 | 30.98319 | 28638 ft | 442 kts | 243° |
| 2026-05-03 23:12 | 41.49127 | 30.94522 | 28339 ft | 436 kts | 243° |
| 2026-05-03 23:12 | 41.48034 | 30.90760 | 28106 ft | 435 kts | 243° |
| 2026-05-03 23:12 | 41.46936 | 30.86982 | 27860 ft | 437 kts | 244° |
| 2026-05-03 23:13 | 41.45855 | 30.83246 | 27613 ft | 437 kts | 244° |
| 2026-05-03 23:13 | 41.44762 | 30.79472 | 27358 ft | 433 kts | 244° |
| 2026-05-03 23:13 | 41.43677 | 30.75734 | 27103 ft | 430 kts | 244° |
| 2026-05-03 23:13 | 41.42597 | 30.72022 | 26855 ft | 429 kts | 244° |
| 2026-05-03 23:14 | 41.41522 | 30.68328 | 26605 ft | 427 kts | 244° |
| 2026-05-03 23:14 | 41.40450 | 30.64646 | 26356 ft | 425 kts | 245° |
| 2026-05-03 23:14 | 41.39379 | 30.60976 | 26109 ft | 423 kts | 245° |
| 2026-05-03 23:14 | 41.38320 | 30.57337 | 25858 ft | 422 kts | 245° |
| 2026-05-03 23:15 | 41.37279 | 30.53682 | 25603 ft | 421 kts | 245° |
| 2026-05-03 23:15 | 41.36245 | 30.50023 | 25348 ft | 420 kts | 246° |
| 2026-05-03 23:15 | 41.35241 | 30.46444 | 25111 ft | 418 kts | 246° |
| 2026-05-03 23:15 | 41.34211 | 30.42776 | 24859 ft | 416 kts | 246° |
| 2026-05-03 23:16 | 41.33211 | 30.39225 | 24611 ft | 414 kts | 246° |
| 2026-05-03 23:16 | 41.32200 | 30.35647 | 24361 ft | 413 kts | 246° |
| 2026-05-03 23:16 | 41.31188 | 30.32079 | 24111 ft | 412 kts | 246° |
| 2026-05-03 23:16 | 41.30175 | 30.28516 | 23862 ft | 410 kts | 246° |
| 2026-05-03 23:17 | 41.29165 | 30.24975 | 23613 ft | 409 kts | 246° |
| 2026-05-03 23:17 | 41.28159 | 30.21445 | 23361 ft | 408 kts | 246° |
| 2026-05-03 23:17 | 41.27151 | 30.17917 | 23112 ft | 407 kts | 247° |
| 2026-05-03 23:17 | 41.26143 | 30.14395 | 22861 ft | 406 kts | 247° |
| 2026-05-03 23:18 | 41.25139 | 30.10893 | 22609 ft | 405 kts | 247° |
| 2026-05-03 23:18 | 41.24132 | 30.07389 | 22212 ft | 405 kts | 247° |
| 2026-05-03 23:18 | 41.23144 | 30.03948 | 21763 ft | 402 kts | 247° |
| 2026-05-03 23:18 | 41.22149 | 30.00485 | 21299 ft | 400 kts | 248° |
| 2026-05-03 23:19 | 41.21155 | 29.97041 | 20830 ft | 399 kts | 248° |
| 2026-05-03 23:19 | 41.20161 | 29.93607 | 20350 ft | 397 kts | 248° |
| 2026-05-03 23:19 | 41.19173 | 29.90184 | 19883 ft | 396 kts | 249° |
| 2026-05-03 23:19 | 41.18188 | 29.86769 | 19384 ft | 396 kts | 249° |
| 2026-05-03 23:20 | 41.17203 | 29.83367 | 18912 ft | 395 kts | 249° |
| 2026-05-03 23:20 | 41.16215 | 29.79965 | 18429 ft | 395 kts | 249° |
| 2026-05-03 23:20 | 41.15230 | 29.76571 | 17943 ft | 393 kts | 249° |
| 2026-05-03 23:20 | 41.14581 | 29.74333 | 17622 ft | 392 kts | 249° |
| 2026-05-03 23:21 | 41.13601 | 29.70962 | 17153 ft | 390 kts | 249° |
| 2026-05-03 23:21 | 41.12630 | 29.67621 | 16675 ft | 388 kts | 249° |
| 2026-05-03 23:21 | 41.11658 | 29.64284 | 16173 ft | 387 kts | 249° |
| 2026-05-03 23:21 | 41.10690 | 29.60970 | 15721 ft | 384 kts | 249° |
| 2026-05-03 23:22 | 41.08766 | 29.54397 | 14766 ft | 380 kts | 249° |
| 2026-05-03 23:22 | 41.07811 | 29.51137 | 14310 ft | 378 kts | 249° |
| 2026-05-03 23:22 | 41.06857 | 29.47887 | 13810 ft | 377 kts | 249° |
| 2026-05-03 23:23 | 41.05908 | 29.44676 | 13368 ft | 373 kts | 249° |
| 2026-05-03 23:23 | 41.04971 | 29.41488 | 12891 ft | 371 kts | 249° |
| 2026-05-03 23:23 | 41.04039 | 29.38316 | 12433 ft | 369 kts | 249° |
| 2026-05-03 23:23 | 41.03109 | 29.35154 | 11953 ft | 368 kts | 249° |
| 2026-05-03 23:24 | 41.02178 | 29.31998 | 11513 ft | 366 kts | 249° |
| 2026-05-03 23:24 | 41.01255 | 29.28883 | 11242 ft | 359 kts | 250° |
| 2026-05-03 23:24 | 41.00361 | 29.25863 | 11175 ft | 346 kts | 250° |
| 2026-05-03 23:24 | 40.99510 | 29.22994 | 11087 ft | 330 kts | 250° |
| 2026-05-03 23:25 | 40.98669 | 29.20168 | 10971 ft | 321 kts | 250° |
| 2026-05-03 23:25 | 40.97893 | 29.17473 | 10787 ft | 315 kts | 249° |
| 2026-05-03 23:25 | 40.97062 | 29.14757 | 10498 ft | 318 kts | 250° |
| 2026-05-03 23:25 | 40.96318 | 29.12036 | 10337 ft | 310 kts | 253° |
| 2026-05-03 23:26 | 40.95571 | 29.09335 | 9937 ft | 314 kts | 253° |
| 2026-05-03 23:26 | 40.94774 | 29.06657 | 9753 ft | 310 kts | 250° |
| 2026-05-03 23:26 | 40.93944 | 29.04041 | 9492 ft | 308 kts | 250° |
| 2026-05-03 23:26 | 40.93127 | 29.01431 | 9164 ft | 306 kts | 251° |
| 2026-05-03 23:27 | 40.92333 | 28.98851 | 8757 ft | 301 kts | 252° |
| 2026-05-03 23:27 | 40.91557 | 28.96284 | 8227 ft | 300 kts | 252° |
| 2026-05-03 23:27 | 40.90785 | 28.93721 | 7750 ft | 298 kts | 252° |
| 2026-05-03 23:27 | 40.90022 | 28.91189 | 7349 ft | 295 kts | 252° |
| 2026-05-03 23:28 | 40.89271 | 28.88696 | 6921 ft | 291 kts | 251° |
| 2026-05-03 23:28 | 40.88510 | 28.86228 | 6384 ft | 289 kts | 252° |
| 2026-05-03 23:28 | 40.88119 | 28.83736 | 5989 ft | 276 kts | 278° |
| 2026-05-03 23:28 | 40.88584 | 28.81375 | 5734 ft | 261 kts | 303° |
| 2026-05-03 23:29 | 40.89639 | 28.79490 | 5544 ft | 252 kts | 321° |
| 2026-05-03 23:29 | 40.91060 | 28.78169 | 5443 ft | 250 kts | 335° |
| 2026-05-03 23:29 | 40.92630 | 28.77149 | 5335 ft | 253 kts | 340° |
| 2026-05-03 23:29 | 40.94213 | 28.76075 | 5223 ft | 256 kts | 333° |
| 2026-05-03 23:30 | 40.95740 | 28.74868 | 5148 ft | 254 kts | 332° |
| 2026-05-03 23:30 | 40.97242 | 28.73664 | 5011 ft | 248 kts | 334° |
| 2026-05-03 23:30 | 40.98817 | 28.73062 | 4977 ft | 229 kts | 4° |
| 2026-05-03 23:30 | 41.00361 | 28.73205 | 4970 ft | 218 kts | 4° |
| 2026-05-03 23:31 | 41.01812 | 28.73236 | 4947 ft | 206 kts | 1° |
| 2026-05-03 23:31 | 41.03233 | 28.73222 | 4743 ft | 204 kts | 1° |
| 2026-05-03 23:31 | 41.04646 | 28.73197 | 4505 ft | 202 kts | 1° |
| 2026-05-03 23:31 | 41.06042 | 28.73169 | 4229 ft | 197 kts | 1° |
| 2026-05-03 23:32 | 41.07405 | 28.73145 | 3976 ft | 193 kts | 1° |
| 2026-05-03 23:32 | 41.08748 | 28.73115 | 3699 ft | 192 kts | 0° |
| 2026-05-03 23:32 | 41.10059 | 28.73089 | 3454 ft | 185 kts | 0° |
| 2026-05-03 23:32 | 41.11330 | 28.73064 | 3236 ft | 179 kts | 1° |
| 2026-05-03 23:33 | 41.12544 | 28.73046 | 2971 ft | 173 kts | 2° |
| 2026-05-03 23:33 | 41.13722 | 28.73027 | 2750 ft | 166 kts | 359° |
| 2026-05-03 23:33 | 41.14853 | 28.72999 | 2525 ft | 157 kts | 1° |
| 2026-05-03 23:33 | 41.15906 | 28.72979 | 2337 ft | 146 kts | 0° |
| 2026-05-03 23:34 | 41.16875 | 28.72960 | 2129 ft | 131 kts | 1° |
| 2026-05-03 23:34 | 41.17761 | 28.72936 | 1965 ft | 130 kts | 1° |
| 2026-05-03 23:34 | 41.18705 | 28.72944 | 1821 ft | 140 kts | 1° |
| 2026-05-03 23:34 | 41.19666 | 28.72914 | 1629 ft | 137 kts | 0° |
| 2026-05-03 23:35 | 41.20628 | 28.72898 | 1443 ft | 138 kts | 2° |
| 2026-05-03 23:35 | 41.21575 | 28.72898 | 1285 ft | 136 kts | 359° |
| 2026-05-03 23:35 | 41.22506 | 28.72827 | 1077 ft | 134 kts | 358° |
| 2026-05-03 23:35 | 41.23427 | 28.72801 | 899 ft | 130 kts | 1° |
| 2026-05-03 23:36 | 41.24309 | 28.72802 | 714 ft | 128 kts | 1° |
| 2026-05-03 23:36 | 41.25214 | 28.72786 | 554 ft | 131 kts | 358° |
| 2026-05-03 23:36 | 41.26143 | 28.72768 | 385 ft | 134 kts | 0° |
| 2026-05-03 23:36 | 41.27046 | 28.72759 | 303 ft | 121 kts | 358° |
| 2026-05-03 23:37 | 41.27736 | 28.72745 | 283 ft | 79 kts | 360° |
| 2026-05-03 23:37 | 41.28139 | 28.72739 | 269 ft | 41 kts | 1° |
| 2026-05-03 23:37 | 41.28353 | 28.72802 | 262 ft | 18 kts | 26° |
| 2026-05-03 23:37 | 41.28439 | 28.72868 | 263 ft | 11 kts | 36° |
| 2026-05-03 23:38 | 41.28449 | 28.72951 | 264 ft | 10 kts | 132° |
| 2026-05-03 23:38 | 41.28382 | 28.72964 | 267 ft | 10 kts | 180° |
| 2026-05-03 23:38 | 41.28315 | 28.72964 | 270 ft | 10 kts | 180° |
| 2026-05-03 23:38 | 41.28249 | 28.72965 | 273 ft | 9 kts | 179° |
| 2026-05-03 23:39 | 41.28186 | 28.72965 | 277 ft | 9 kts | 179° |
| 2026-05-03 23:39 | 41.28123 | 28.72966 | 280 ft | 9 kts | 179° |
| 2026-05-03 23:39 | 41.28063 | 28.72967 | 283 ft | 9 kts | 179° |
| 2026-05-03 23:39 | 41.27998 | 28.72969 | 285 ft | 11 kts | 179° |
| 2026-05-03 23:40 | 41.27914 | 28.72971 | 288 ft | 14 kts | 179° |
| 2026-05-03 23:40 | 41.27811 | 28.72973 | 291 ft | 16 kts | 179° |
| 2026-05-03 23:40 | 41.27704 | 28.72977 | 293 ft | 15 kts | 178° |
| 2026-05-03 23:40 | 41.27603 | 28.72979 | 295 ft | 14 kts | 179° |
| 2026-05-03 23:41 | 41.27506 | 28.72979 | 297 ft | 14 kts | 182° |
| 2026-05-03 23:41 | 41.27434 | 28.72980 | 298 ft | 9 kts | 171° |
| 2026-05-03 23:41 | 41.27393 | 28.73034 | 299 ft | 9 kts | 98° |
| 2026-05-03 23:41 | 41.27392 | 28.73115 | 300 ft | 9 kts | 89° |
| 2026-05-03 23:42 | 41.27393 | 28.73193 | 301 ft | 8 kts | 89° |
| 2026-05-03 23:42 | 41.27394 | 28.73276 | 302 ft | 10 kts | 89° |
| 2026-05-03 23:42 | 41.27395 | 28.73392 | 302 ft | 15 kts | 89° |
| 2026-05-03 23:42 | 41.27397 | 28.73530 | 302 ft | 15 kts | 88° |
| 2026-05-03 23:43 | 41.27398 | 28.73663 | 302 ft | 14 kts | 89° |
| 2026-05-03 23:43 | 41.27399 | 28.73780 | 302 ft | 10 kts | 88° |
| 2026-05-03 23:43 | 41.27375 | 28.73855 | 302 ft | 9 kts | 151° |
| 2026-05-03 23:43 | 41.27310 | 28.73862 | 304 ft | 9 kts | 179° |
| 2026-05-03 23:44 | 41.27246 | 28.73863 | 305 ft | 10 kts | 179° |
| 2026-05-03 23:44 | 41.27166 | 28.73865 | 307 ft | 13 kts | 179° |
| 2026-05-03 23:44 | 41.27065 | 28.73866 | 309 ft | 15 kts | 179° |
| 2026-05-03 23:44 | 41.26962 | 28.73868 | 311 ft | 14 kts | 179° |
| 2026-05-03 23:45 | 41.26864 | 28.73869 | 312 ft | 14 kts | 179° |
| 2026-05-03 23:45 | 41.26771 | 28.73872 | 312 ft | 13 kts | 179° |
| 2026-05-03 23:45 | 41.26681 | 28.73874 | 312 ft | 13 kts | 179° |
| 2026-05-03 23:45 | 41.26593 | 28.73874 | 312 ft | 12 kts | 180° |
| 2026-05-03 23:46 | 41.26509 | 28.73888 | 312 ft | 12 kts | 162° |
| 2026-05-03 23:46 | 41.26437 | 28.73915 | 312 ft | 9 kts | 178° |
| 2026-05-03 23:46 | 41.26376 | 28.73891 | 312 ft | 7 kts | 201° |
| 2026-05-03 23:46 | 41.26352 | 28.73879 | 312 ft | 0 kts | 201° |
| 2026-05-03 23:47 | 41.26349 | 28.73877 | 312 ft | 2 kts | 201° |
| 2026-05-03 23:47 | 41.26343 | 28.73874 | 312 ft | 0 kts | 200° |